Time;durP1;ratioP1;P1;durP2;ratioP2;P2;SDS_P1;SDS_P2;PMS_P1;PMS_P2;Temp;Humidity;BMP_temperature;BMP_pressure;BME280_temperature;BME280_humidity;BME280_pressure;Samples;Min_cycle;Max_cycle;Signal;HPM_P1;HPM_P2
2022/11/16 00:01:06;;;;;;;36.53;16.50;;;;;;;5.96;100.00;100204.96;1815150;78;26969;-81
2022/11/16 00:03:33;;;;;;;34.98;17.07;;;;;;;5.97;100.00;100209.27;1819393;77;25794;-81
2022/11/16 00:06:03;;;;;;;31.87;17.15;;;;;;;5.99;100.00;100203.77;1764153;79;27461;-81
2022/11/16 00:08:32;;;;;;;32.35;15.80;;;;;;;5.97;100.00;100209.27;1818825;77;25865;-82
2022/11/16 00:11:11;;;;;;;32.17;16.60;;;;;;;5.97;100.00;100200.45;1807327;78;25708;-81
2022/11/16 00:13:40;;;;;;;32.63;16.30;;;;;;;5.97;100.00;100200.45;1830592;76;26575;-81
2022/11/16 00:16:09;;;;;;;34.83;17.75;;;;;;;5.99;100.00;100201.11;1833827;76;26376;-81
2022/11/16 00:18:36;;;;;;;32.58;14.98;;;;;;;5.99;100.00;100201.11;1835711;76;27428;-81
2022/11/16 00:21:04;;;;;;;36.42;17.57;;;;;;;5.98;100.00;100208.28;1810045;78;25647;-82
2022/11/16 00:23:31;;;;;;;38.17;18.85;;;;;;;5.95;100.00;100206.43;1800404;78;25837;-81
2022/11/16 00:26:05;;;;;;;36.03;17.45;;;;;;;5.92;100.00;100202.27;1795899;78;26317;-81
2022/11/16 00:28:32;;;;;;;38.40;18.52;;;;;;;5.92;100.00;100198.81;1812861;78;25918;-81
2022/11/16 00:31:00;;;;;;;38.63;17.82;;;;;;;5.92;100.00;100200.95;1782604;79;27466;-82
2022/11/16 00:33:27;;;;;;;40.20;19.00;;;;;;;5.95;100.00;100201.11;1803005;77;25385;-81
2022/11/16 00:35:54;;;;;;;37.40;17.73;;;;;;;5.95;100.00;100207.27;1810394;77;25814;-81
2022/11/16 00:38:21;;;;;;;40.38;17.73;;;;;;;5.96;100.00;100198.80;1806037;77;25774;-81
2022/11/16 00:40:47;;;;;;;40.85;18.55;;;;;;;5.95;100.00;100196.63;1814190;77;26097;-81
2022/11/16 00:43:14;;;;;;;37.60;17.60;;;;;;;5.94;100.00;100198.98;1819230;77;27449;-82
2022/11/16 00:45:42;;;;;;;31.80;15.32;;;;;;;5.91;100.00;100191.33;1806013;77;25866;-81
2022/11/16 00:48:10;;;;;;;39.65;18.40;;;;;;;5.91;100.00;100190.48;1821914;77;25843;-81
2022/11/16 00:50:36;;;;;;;38.83;18.02;;;;;;;5.88;100.00;100183.67;1822909;77;25955;-81
2022/11/16 00:53:04;;;;;;;37.95;17.35;;;;;;;5.89;100.00;100179.20;1815633;77;26058;-81
2022/11/16 00:55:32;;;;;;;36.80;17.07;;;;;;;5.90;100.00;100179.54;1823241;77;28703;-81
2022/11/16 00:57:59;;;;;;;39.23;18.57;;;;;;;5.90;100.00;100179.02;1796626;78;26095;-81
2022/11/16 01:00:26;;;;;;;40.00;18.32;;;;;;;5.91;100.00;100175.38;1765576;79;26492;-81
2022/11/16 01:02:53;;;;;;;39.48;17.30;;;;;;;5.94;100.00;100165.75;1793291;78;26447;-81
2022/11/16 01:05:21;;;;;;;38.75;18.23;;;;;;;5.96;100.00;100157.11;1809446;77;25560;-81
2022/11/16 01:07:48;;;;;;;39.60;17.82;;;;;;;5.97;100.00;100153.92;1831845;77;27436;-81
2022/11/16 01:10:18;;;;;;;44.65;19.45;;;;;;;6.01;100.00;100136.64;1823642;77;25741;-81
2022/11/16 01:12:47;;;;;;;45.83;20.20;;;;;;;6.04;100.00;100136.31;1810697;77;32545;-81
2022/11/16 01:15:15;;;;;;;38.60;18.82;;;;;;;6.04;100.00;100131.00;1820804;77;25803;-81
2022/11/16 01:17:42;;;;;;;40.15;18.67;;;;;;;6.02;100.00;100128.52;1815790;78;25265;-81
2022/11/16 01:20:17;;;;;;;40.75;19.50;;;;;;;6.07;100.00;100125.35;1828748;77;28219;-81
2022/11/16 01:22:44;;;;;;;42.20;19.80;;;;;;;6.11;100.00;100128.00;1817109;77;25910;-81
2022/11/16 01:25:12;;;;;;;33.33;17.35;;;;;;;6.13;100.00;100134.81;1822718;77;25744;-81
2022/11/16 01:27:40;;;;;;;38.83;18.65;;;;;;;6.16;100.00;100132.29;1811222;77;25964;-81
2022/11/16 01:30:12;;;;;;;41.08;18.95;;;;;;;6.16;100.00;100135.78;1806412;77;25778;-81
2022/11/16 01:32:40;;;;;;;37.75;18.98;;;;;;;6.18;100.00;100142.25;1806177;77;27583;-83
2022/11/16 01:35:07;;;;;;;33.60;18.55;;;;;;;6.19;100.00;100139.94;1809452;77;25723;-81
2022/11/16 01:37:34;;;;;;;35.20;19.05;;;;;;;6.17;100.00;100146.77;1816434;77;25697;-81
2022/11/16 01:40:00;;;;;;;36.08;18.55;;;;;;;6.17;100.00;100152.58;1821657;78;25794;-81
2022/11/16 01:42:30;;;;;;;40.03;18.62;;;;;;;6.16;100.00;100150.41;1825708;76;25312;-81
2022/11/16 01:45:19;;;;;;;34.90;17.15;;;;;;;6.14;100.00;100156.40;1808510;78;27621;-81
2022/11/16 01:47:48;;;;;;;34.85;16.87;;;;;;;6.12;100.00;100154.91;1809577;78;25885;-82
2022/11/16 01:50:18;;;;;;;31.93;16.37;;;;;;;6.12;100.00;100158.40;1801085;78;25752;-81
2022/11/16 01:52:51;;;;;;;34.95;16.23;;;;;;;6.11;100.00;100151.93;1823791;77;26723;-81
2022/11/16 01:55:19;;;;;;;31.55;15.63;;;;;;;6.11;100.00;100143.95;1813246;78;25773;-81
2022/11/16 01:57:55;;;;;;;32.13;16.65;;;;;;;6.07;100.00;100142.64;1821286;77;27528;-80
2022/11/16 02:00:22;;;;;;;30.27;16.23;;;;;;;6.07;100.00;100137.31;1829697;77;25895;-80
2022/11/16 02:02:50;;;;;;;32.17;16.90;;;;;;;6.05;100.00;100137.98;1793615;78;25716;-80
2022/11/16 02:05:45;;;;;;;30.23;15.93;;;;;;;6.05;100.00;100134.80;1819370;77;25755;-80
2022/11/16 02:11:40;;;;;;;37.78;18.85;;;;;;;6.09;100.00;100140.11;1820717;77;28904;-80
2022/11/16 02:14:59;;;;;;;30.97;16.25;;;;;;;6.12;100.00;100137.62;1810832;76;25788;-80
2022/11/16 02:17:53;;;;;;;30.00;15.38;;;;;;;6.10;100.00;100138.29;1829774;76;25762;-80
2022/11/16 02:21:11;;;;;;;28.40;14.95;;;;;;;6.08;100.00;100133.64;1810621;78;26631;-80
2022/11/16 02:24:00;;;;;;;26.95;14.90;;;;;;;6.08;100.00;100121.19;1780102;78;25977;-80
2022/11/16 02:27:00;;;;;;;27.95;15.45;;;;;;;6.10;100.00;100114.36;1820193;78;27444;-80
2022/11/16 02:29:47;;;;;;;27.10;14.60;;;;;;;6.10;100.00;100107.72;1775222;76;34966;-81
2022/11/16 02:32:40;;;;;;;26.97;14.58;;;;;;;6.11;100.00;100103.58;1812459;76;25743;-81
2022/11/16 02:35:24;;;;;;;30.12;14.50;;;;;;;6.12;100.00;100106.55;1793300;78;26338;-81
2022/11/16 02:38:00;;;;;;;29.63;15.83;;;;;;;6.10;100.00;100099.24;1808426;78;26126;-81
2022/11/16 02:40:31;;;;;;;29.72;15.53;;;;;;;6.08;100.00;100082.63;1819447;77;27406;-81
2022/11/16 02:43:07;;;;;;;28.60;14.45;;;;;;;6.10;100.00;100085.95;1823455;77;26897;-81
2022/11/16 02:45:47;;;;;;;28.83;14.05;;;;;;;6.11;100.00;100077.48;1826060;77;25838;-80
2022/11/16 02:48:19;;;;;;;24.07;14.20;;;;;;;6.11;100.00;100081.47;1819271;78;26563;-81
2022/11/16 02:50:47;;;;;;;27.37;14.45;;;;;;;6.09;100.00;100084.27;1820515;77;25806;-82
2022/11/16 02:53:14;;;;;;;26.12;13.45;;;;;;;6.09;100.00;100086.12;1797826;77;27527;-81
2022/11/16 02:55:41;;;;;;;29.25;12.47;;;;;;;6.08;100.00;100083.97;1800233;78;25944;-81
2022/11/16 02:58:16;;;;;;;21.57;12.63;;;;;;;6.08;100.00;100089.77;1809788;78;25886;-81
2022/11/16 03:01:06;;;;;;;26.10;13.38;;;;;;;6.05;100.00;100090.94;1816902;77;25734;-81
2022/11/16 03:04:02;;;;;;;21.87;12.28;;;;;;;6.03;100.00;100087.63;1834217;76;25894;-81
2022/11/16 03:06:32;;;;;;;24.90;13.45;;;;;;;6.02;100.00;100084.65;1828620;76;28243;-80
2022/11/16 03:09:06;;;;;;;25.77;13.80;;;;;;;5.99;100.00;100080.16;1793599;76;25885;-80
2022/11/16 03:14:26;;;;;;;24.72;13.60;;;;;;;5.96;100.00;100077.85;1826972;76;26016;-80
2022/11/16 03:17:00;;;;;;;22.93;12.68;;;;;;;5.94;100.00;100079.36;1802412;77;26571;-81
2022/11/16 03:19:56;;;;;;;25.35;12.65;;;;;;;5.95;100.00;100069.53;1814246;76;28405;-81
2022/11/16 03:22:34;;;;;;;24.67;12.98;;;;;;;5.94;100.00;100072.71;1822524;76;25595;-80
2022/11/16 03:25:03;;;;;;;25.15;14.13;;;;;;;5.90;100.00;100062.06;1758727;79;25923;-81
2022/11/16 03:27:41;;;;;;;26.10;13.83;;;;;;;5.93;100.00;100062.23;1826251;76;25763;-81
2022/11/16 03:30:15;;;;;;;28.50;15.10;;;;;;;5.95;100.00;100065.55;1794365;78;26294;-81
2022/11/16 03:33:01;;;;;;;27.42;14.85;;;;;;;5.93;100.00;100057.75;1797712;78;28783;-81
2022/11/16 03:35:57;;;;;;;23.90;14.43;;;;;;;5.94;100.00;100062.58;1820847;76;26348;-81
2022/11/16 03:38:26;;;;;;;26.05;14.30;;;;;;;5.93;100.00;100057.75;1830390;76;25868;-81
2022/11/16 03:40:58;;;;;;;25.43;14.38;;;;;;;5.88;100.00;100054.76;1780792;78;26537;-80
2022/11/16 03:43:26;;;;;;;23.70;14.38;;;;;;;5.87;100.00;100054.45;1819788;77;26411;-80
2022/11/16 03:45:54;;;;;;;25.50;15.13;;;;;;;5.85;100.00;100060.44;1800802;77;26889;-81
2022/11/16 03:48:20;;;;;;;28.47;15.08;;;;;;;5.84;100.00;100049.45;1776456;77;25826;-81
2022/11/16 03:50:47;;;;;;;24.25;14.43;;;;;;;5.86;100.00;100053.30;1791490;78;25882;-81
2022/11/16 03:53:14;;;;;;;27.25;15.80;;;;;;;5.86;100.00;100054.63;1804682;78;25819;-81
2022/11/16 03:55:40;;;;;;;27.40;14.65;;;;;;;5.85;100.00;100051.13;1787497;79;25955;-81
2022/11/16 03:58:06;;;;;;;29.00;14.55;;;;;;;5.83;100.00;100049.11;1843370;76;27451;-81
2022/11/16 04:00:33;;;;;;;28.75;16.32;;;;;;;5.81;100.00;100056.42;1849762;76;25281;-81
2022/11/16 04:03:02;;;;;;;30.32;16.05;;;;;;;5.82;100.00;100052.75;1842249;76;25718;-81
2022/11/16 04:24:55;;;;;;;29.00;16.32;;;;;;;5.78;100.00;100043.95;1793424;78;27475;-81
2022/11/16 04:30:12;;;;;;;31.95;17.27;;;;;;;5.79;100.00;100042.48;1783255;78;25925;-80
2022/11/16 04:38:08;;;;;;;33.60;18.65;;;;;;;5.77;100.00;100041.83;1816385;77;27424;-81
2022/11/16 04:40:35;;;;;;;30.97;16.95;;;;;;;5.75;100.00;100039.00;1810557;77;25989;-81
2022/11/16 04:43:06;;;;;;;34.38;17.10;;;;;;;5.75;100.00;100035.82;1827071;77;25986;-81
2022/11/16 04:48:21;;;;;;;30.52;16.00;;;;;;;5.77;100.00;100038.33;1823049;77;26276;-80
2022/11/16 04:50:49;;;;;;;32.05;16.95;;;;;;;5.78;100.00;100043.95;1829978;77;27508;-80
2022/11/16 04:53:15;;;;;;;31.87;17.27;;;;;;;5.78;100.00;100038.64;1808194;77;25789;-81
2022/11/16 04:55:49;;;;;;;33.63;17.70;;;;;;;5.75;100.00;100037.67;1811609;77;25798;-81
2022/11/16 04:58:14;;;;;;;33.13;16.60;;;;;;;5.76;100.00;100036.66;1810928;77;27373;-81
2022/11/16 05:00:41;;;;;;;31.17;16.60;;;;;;;5.78;100.00;100033.33;1813691;77;25787;-81
2022/11/16 05:03:08;;;;;;;31.68;16.77;;;;;;;5.77;100.00;100028.53;1814878;77;28018;-81
2022/11/16 05:05:35;;;;;;;33.40;18.10;;;;;;;5.76;100.00;100025.53;1822664;77;25871;-80
2022/11/16 05:08:02;;;;;;;34.73;18.10;;;;;;;5.75;100.00;100023.05;1803409;78;25785;-81
2022/11/16 05:10:30;;;;;;;37.08;18.95;;;;;;;5.73;100.00;100021.88;1821631;77;26097;-80
2022/11/16 05:12:56;;;;;;;39.20;18.48;;;;;;;5.73;100.00;100023.20;1800352;77;25786;-80
2022/11/16 05:15:23;;;;;;;37.85;19.20;;;;;;;5.75;100.00;100019.87;1820828;76;27447;-82
2022/11/16 05:17:50;;;;;;;35.68;18.82;;;;;;;5.78;100.00;100014.23;1829800;76;25817;-81
2022/11/16 05:23:04;;;;;;;33.60;18.17;;;;;;;5.83;100.00;100023.03;1800713;78;25815;-80
2022/11/16 05:25:32;;;;;;;38.28;18.67;;;;;;;5.84;100.00;100020.22;1825190;76;26250;-80
2022/11/16 05:27:58;;;;;;;35.45;17.12;;;;;;;5.86;100.00;100026.72;1825571;76;28342;-81
2022/11/16 05:30:25;;;;;;;37.08;18.20;;;;;;;5.88;100.00;100027.37;1836784;77;25906;-81
2022/11/16 05:32:51;;;;;;;37.53;18.67;;;;;;;5.88;100.00;100026.85;1842072;76;25821;-81
2022/11/16 05:35:19;;;;;;;36.65;19.50;;;;;;;5.89;100.00;100026.36;1808075;78;25881;-81
2022/11/16 05:37:45;;;;;;;34.30;18.40;;;;;;;5.91;100.00;100028.34;1820481;77;25262;-80
2022/11/16 05:40:12;;;;;;;38.55;19.80;;;;;;;5.90;100.00;100032.02;1826568;77;27444;-81
2022/11/16 05:42:40;;;;;;;39.30;19.92;;;;;;;5.89;100.00;100027.69;1821616;76;25798;-80
2022/11/16 05:45:09;;;;;;;36.65;18.57;;;;;;;5.89;100.00;100023.70;1796215;78;25928;-80
2022/11/16 05:47:35;;;;;;;41.30;18.02;;;;;;;5.87;100.00;100030.53;1822423;77;27119;-80
2022/11/16 05:50:03;;;;;;;34.65;18.35;;;;;;;5.87;100.00;100035.84;1824211;77;26173;-80
2022/11/16 05:52:31;;;;;;;31.85;17.98;;;;;;;5.87;100.00;100036.33;1826399;78;27453;-80
2022/11/16 05:54:59;;;;;;;39.50;19.20;;;;;;;5.85;100.00;100039.17;1811461;78;25882;-81
2022/11/16 05:57:27;;;;;;;35.13;18.32;;;;;;;5.86;100.00;100039.48;1769519;79;25900;-81
2022/11/16 05:59:55;;;;;;;34.33;17.95;;;;;;;5.85;100.00;100040.50;1809720;78;25531;-81
2022/11/16 06:02:22;;;;;;;37.78;19.23;;;;;;;5.86;100.00;100040.01;1819092;77;25633;-80
2022/11/16 06:04:48;;;;;;;35.28;18.07;;;;;;;5.87;100.00;100042.48;1816532;78;27452;-81
2022/11/16 06:07:15;;;;;;;33.70;17.35;;;;;;;5.89;100.00;100042.30;1813473;77;25931;-81
2022/11/16 06:09:42;;;;;;;35.88;18.27;;;;;;;5.90;100.00;100041.33;1825810;77;25692;-80
2022/11/16 06:12:10;;;;;;;34.63;17.30;;;;;;;5.87;100.00;100037.66;1826183;77;26427;-80
2022/11/16 06:14:37;;;;;;;35.83;18.05;;;;;;;5.86;100.00;100038.68;1797227;78;25830;-81
2022/11/16 06:17:04;;;;;;;32.80;18.05;;;;;;;5.87;100.00;100034.52;1827851;77;27468;-81
2022/11/16 06:19:30;;;;;;;35.65;19.25;;;;;;;5.86;100.00;100027.52;1832297;77;25833;-80
2022/11/16 06:21:57;;;;;;;29.87;16.20;;;;;;;5.87;100.00;100027.88;1810856;78;25863;-80
2022/11/16 06:24:23;;;;;;;31.57;17.07;;;;;;;5.87;100.00;100037.17;1827141;77;25809;-80
2022/11/16 06:26:50;;;;;;;33.15;17.90;;;;;;;5.87;100.00;100033.19;1832002;76;26479;-80
2022/11/16 06:29:18;;;;;;;33.67;17.55;;;;;;;5.87;100.00;100028.36;1824980;77;27440;-81
2022/11/16 06:31:44;;;;;;;34.90;18.55;;;;;;;5.87;100.00;100023.88;1834247;77;26505;-81
2022/11/16 06:34:11;;;;;;;34.92;18.55;;;;;;;5.89;100.00;100039.16;1827187;76;25708;-80
2022/11/16 06:36:38;;;;;;;37.28;17.27;;;;;;;5.91;100.00;100034.98;1802451;78;25755;-80
2022/11/16 06:39:04;;;;;;;30.43;16.80;;;;;;;5.93;100.00;100027.67;1821965;77;25818;-81
2022/11/16 06:41:33;;;;;;;34.08;18.90;;;;;;;5.94;100.00;100020.05;1820180;77;28270;-81
2022/11/16 06:43:59;;;;;;;36.85;18.52;;;;;;;5.96;100.00;100024.19;1794731;78;25765;-81
2022/11/16 06:46:28;;;;;;;35.48;18.30;;;;;;;5.99;100.00;100025.66;1792888;78;26284;-80
2022/11/16 06:48:55;;;;;;;34.10;18.27;;;;;;;6.01;100.00;100024.98;1833308;77;26677;-80
2022/11/16 06:51:22;;;;;;;37.93;18.73;;;;;;;6.02;100.00;100026.16;1795729;78;26489;-80
2022/11/16 06:53:48;;;;;;;33.25;18.23;;;;;;;6.03;100.00;100021.68;1814042;76;28258;-80
2022/11/16 06:56:15;;;;;;;33.13;17.57;;;;;;;6.04;100.00;100021.99;1813220;76;25746;-81
2022/11/16 06:58:46;;;;;;;35.48;18.62;;;;;;;6.00;100.00;100017.53;1828968;76;26272;-80
2022/11/16 07:01:12;;;;;;;32.55;18.02;;;;;;;6.01;100.00;100018.34;1827429;76;25801;-81
2022/11/16 07:03:40;;;;;;;34.35;17.87;;;;;;;6.01;100.00;100025.81;1827720;76;26135;-81
2022/11/16 07:06:10;;;;;;;33.98;17.40;;;;;;;6.02;100.00;100016.02;1812236;78;28277;-81
2022/11/16 07:08:38;;;;;;;41.33;19.60;;;;;;;6.00;100.00;100016.20;1831831;77;25894;-82
2022/11/16 07:11:08;;;;;;;36.95;17.82;;;;;;;6.00;100.00;100008.72;1785579;78;25866;-81
2022/11/16 07:13:36;;;;;;;32.63;16.37;;;;;;;6.00;100.00;100008.23;1778070;79;25775;-81
2022/11/16 07:16:06;;;;;;;34.88;16.35;;;;;;;6.00;100.00;100003.41;1791802;78;25908;-81
2022/11/16 07:18:36;;;;;;;33.60;17.92;;;;;;;5.97;100.00;99999.75;1816406;77;28496;-81
2022/11/16 07:21:12;;;;;;;29.32;16.20;;;;;;;5.98;100.00;100004.91;1794916;78;25884;-80
2022/11/16 07:23:40;;;;;;;33.65;17.27;;;;;;;5.97;100.00;100004.56;1824019;77;25716;-80
2022/11/16 07:26:09;;;;;;;30.43;17.25;;;;;;;5.96;100.00;100006.91;1793133;78;26296;-81
2022/11/16 07:28:40;;;;;;;35.00;18.80;;;;;;;5.98;100.00;100011.56;1810469;77;26518;-80
2022/11/16 07:31:10;;;;;;;33.98;17.70;;;;;;;5.98;100.00;100002.75;1823924;77;27447;-81
2022/11/16 07:33:37;;;;;;;32.85;17.90;;;;;;;5.96;100.00;99996.28;1811751;76;25983;-81
2022/11/16 07:36:23;;;;;;;30.92;17.17;;;;;;;5.99;100.00;99996.41;1822718;76;26064;-80
2022/11/16 07:38:51;;;;;;;28.80;16.40;;;;;;;6.03;100.00;99993.77;1811271;77;25818;-80
2022/11/16 07:41:19;;;;;;;31.82;15.98;;;;;;;6.06;100.00;99991.58;1829932;77;26451;-80
2022/11/16 07:43:47;;;;;;;28.92;17.10;;;;;;;6.07;100.00;99987.09;1819458;77;27506;-80
2022/11/16 07:46:19;;;;;;;29.07;16.15;;;;;;;6.07;100.00;99998.54;1817870;77;26604;-80
2022/11/16 07:48:45;;;;;;;30.95;17.23;;;;;;;6.07;100.00;99986.58;1792395;78;26528;-80
2022/11/16 07:51:19;;;;;;;26.30;15.40;;;;;;;6.06;100.00;99994.73;1811475;78;26500;-80
2022/11/16 07:53:54;;;;;;;26.23;13.83;;;;;;;6.06;100.00;99992.08;1820872;77;25308;-80
2022/11/16 07:56:22;;;;;;;27.82;15.10;;;;;;;6.05;100.00;99992.56;1799122;78;28141;-80
2022/11/16 07:58:49;;;;;;;30.35;14.18;;;;;;;6.09;100.00;99990.41;1823032;77;26049;-80
2022/11/16 08:01:17;;;;;;;27.93;14.87;;;;;;;6.09;100.00;99998.39;1825002;77;25853;-81
2022/11/16 08:03:45;;;;;;;24.60;13.68;;;;;;;6.08;100.00;99994.89;1784799;78;25805;-81
2022/11/16 08:06:20;;;;;;;29.45;15.00;;;;;;;6.08;100.00;99985.59;1791332;78;25955;-81
2022/11/16 08:08:47;;;;;;;27.35;14.43;;;;;;;6.06;100.00;99988.92;1789723;78;26921;-81
2022/11/16 08:11:13;;;;;;;32.88;15.30;;;;;;;6.07;100.00;99993.75;1825088;76;25782;-81
2022/11/16 08:13:41;;;;;;;30.12;17.05;;;;;;;6.09;100.00;99993.07;1808716;78;25547;-81
2022/11/16 08:16:16;;;;;;;25.05;14.35;;;;;;;6.10;100.00;99999.53;1800614;77;25778;-80
2022/11/16 08:18:44;;;;;;;30.30;14.73;;;;;;;6.10;100.00;99998.70;1819056;77;25570;-81
2022/11/16 08:21:15;;;;;;;38.78;20.80;;;;;;;6.09;100.00;100001.85;1800312;78;28230;-81
2022/11/16 08:23:45;;;;;;;25.15;14.28;;;;;;;6.12;100.00;100000.69;1760205;79;26013;-81
2022/11/16 08:26:18;;;;;;;24.00;14.23;;;;;;;6.15;100.00;100003.02;1795203;78;25676;-81
2022/11/16 08:28:52;;;;;;;23.35;13.00;;;;;;;6.15;100.00;99994.54;1827076;77;25979;-81
2022/11/16 08:31:24;;;;;;;24.52;13.80;;;;;;;6.16;100.00;100003.32;1823914;77;26579;-81
2022/11/16 08:33:52;;;;;;;24.50;14.07;;;;;;;6.15;100.00;100007.00;1807574;77;27715;-81
2022/11/16 08:36:20;;;;;;;27.37;14.73;;;;;;;6.14;100.00;100007.98;1815148;77;26393;-81
2022/11/16 08:38:49;;;;;;;21.60;12.90;;;;;;;6.13;100.00;100003.69;1792473;77;26157;-81
2022/11/16 08:41:19;;;;;;;25.30;14.20;;;;;;;6.12;100.00;99994.88;1800471;78;25812;-81
2022/11/16 08:43:46;;;;;;;25.30;14.35;;;;;;;6.11;100.00;99988.41;1821918;77;25894;-81
2022/11/16 08:46:13;;;;;;;20.37;13.03;;;;;;;6.13;100.00;99989.89;1821571;77;28598;-80
2022/11/16 08:48:41;;;;;;;20.05;11.75;;;;;;;6.15;100.00;99991.88;1766273;78;26454;-80
2022/11/16 08:51:12;;;;;;;18.15;11.00;;;;;;;6.14;100.00;99995.53;1784344;78;25761;-82
2022/11/16 08:53:39;;;;;;;15.43;9.63;;;;;;;6.13;100.00;99992.56;1794120;77;26414;-81
2022/11/16 08:56:08;;;;;;;16.20;8.25;;;;;;;6.12;100.00;99991.38;1839395;76;26540;-82
2022/11/16 08:58:37;;;;;;;15.18;8.60;;;;;;;6.07;100.00;99985.24;1826501;76;28301;-82
2022/11/16 09:01:11;;;;;;;12.73;7.67;;;;;;;6.04;100.00;99990.09;1819552;76;25901;-81
2022/11/16 09:03:37;;;;;;;12.18;6.62;;;;;;;6.03;100.00;99985.80;1799816;78;26125;-81
2022/11/16 09:06:05;;;;;;;9.83;6.37;;;;;;;6.02;100.00;99985.45;1819766;77;25871;-81
2022/11/16 09:08:32;;;;;;;9.58;6.35;;;;;;;6.01;100.00;99985.10;1813036;77;26317;-81
2022/11/16 09:10:58;;;;;;;9.10;6.08;;;;;;;6.02;100.00;99985.45;1795596;78;27464;-88
2022/11/16 09:13:25;;;;;;;10.10;6.25;;;;;;;6.01;100.00;99986.44;1821575;77;25530;-81
2022/11/16 09:15:57;;;;;;;7.00;5.78;;;;;;;6.02;100.00;99983.63;1807839;77;25806;-81
2022/11/16 09:18:24;;;;;;;8.68;5.95;;;;;;;6.02;100.00;99987.61;1821407;77;27038;-80
2022/11/16 09:20:51;;;;;;;8.78;5.90;;;;;;;6.01;100.00;99983.28;1815383;78;25846;-80
2022/11/16 09:23:17;;;;;;;8.50;6.12;;;;;;;6.04;100.00;99972.81;1830835;77;27445;-79
2022/11/16 09:25:47;;;;;;;7.47;6.12;;;;;;;6.06;100.00;99982.28;1824008;76;25275;-80
2022/11/16 09:28:17;;;;;;;8.50;5.97;;;;;;;6.06;100.00;99987.59;1825045;76;25316;-81
2022/11/16 09:30:46;;;;;;;11.48;6.20;;;;;;;6.05;100.00;99975.28;1826139;76;26625;-88
2022/11/16 09:33:13;;;;;;;8.18;6.12;;;;;;;6.04;100.00;99981.62;1805362;77;25762;-81
2022/11/16 09:35:39;;;;;;;8.28;5.85;;;;;;;6.06;100.00;99977.45;1823005;77;27419;-81
2022/11/16 09:38:08;;;;;;;10.13;5.85;;;;;;;6.07;100.00;99981.26;1819105;76;25851;-82
2022/11/16 09:40:39;;;;;;;8.80;6.03;;;;;;;6.05;100.00;99979.27;1825466;77;25829;-81
2022/11/16 09:43:38;;;;;;;7.95;6.42;;;;;;;6.06;100.00;99976.95;1819832;77;25924;-82
2022/11/16 09:46:16;;;;;;;8.15;5.20;;;;;;;6.04;100.00;99986.10;1782131;78;25860;-83
2022/11/16 09:48:43;;;;;;;7.42;5.67;;;;;;;5.99;100.00;99982.62;1812928;77;26806;-83
2022/11/16 09:51:13;;;;;;;8.43;6.20;;;;;;;5.99;100.00;99980.46;1819251;77;25273;-83
2022/11/16 09:54:05;;;;;;;9.03;6.35;;;;;;;6.00;100.00;99977.66;1828252;77;25765;-83
2022/11/16 09:56:36;;;;;;;7.17;5.67;;;;;;;6.01;100.00;99975.30;1815763;78;26303;-83
2022/11/16 09:59:29;;;;;;;7.22;5.60;;;;;;;6.03;100.00;99975.96;1791853;78;25997;-83
2022/11/16 10:02:21;;;;;;;7.37;5.95;;;;;;;6.05;100.00;99971.83;1821837;76;27805;-83
2022/11/16 10:04:53;;;;;;;9.13;6.00;;;;;;;6.05;100.00;99973.16;1829552;76;25810;-83
2022/11/16 10:07:26;;;;;;;8.00;7.05;;;;;;;6.04;100.00;99961.69;1793207;77;25818;-82
2022/11/16 10:09:55;;;;;;;8.35;6.15;;;;;;;6.05;100.00;99967.84;1811045;77;25801;-82
2022/11/16 10:12:53;;;;;;;6.40;5.45;;;;;;;6.08;100.00;99970.97;1808898;78;25943;-86
2022/11/16 10:15:48;;;;;;;7.03;5.40;;;;;;;6.08;100.00;99968.31;1805497;77;28442;-83
2022/11/16 10:18:38;;;;;;;8.38;5.90;;;;;;;6.09;100.00;99967.81;1821923;77;26314;-86
2022/11/16 10:21:10;;;;;;;8.20;6.13;;;;;;;6.08;100.00;99962.98;1810392;77;25913;-86
2022/11/16 10:24:07;;;;;;;6.33;5.20;;;;;;;6.09;100.00;99961.97;1841669;76;25824;-84
2022/11/16 10:26:45;;;;;;;6.50;5.42;;;;;;;6.07;100.00;99954.67;1820886;78;26319;-82
2022/11/16 10:29:36;;;;;;;6.45;5.00;;;;;;;6.08;100.00;99951.52;1817736;78;27427;-85
2022/11/16 10:32:27;;;;;;;7.10;5.00;;;;;;;6.09;100.00;99939.90;1811266;76;25773;-85
2022/11/16 10:34:57;;;;;;;;;;;;;;;6.08;100.00;99941.72;1823162;76;25539;-84
2022/11/16 10:37:30;;;;;;;6.47;5.35;;;;;;;6.09;100.00;99939.37;1825279;76;25802;-86
2022/11/16 10:39:57;;;;;;;7.50;5.25;;;;;;;6.10;100.00;99938.88;1815064;76;26379;-85
2022/11/16 10:42:31;;;;;;;8.25;5.65;;;;;;;6.17;100.00;99941.17;1806605;78;27435;-85
2022/11/16 10:45:14;;;;;;;6.72;5.30;;;;;;;6.21;100.00;99934.01;1819996;76;25828;-85
2022/11/16 10:47:57;;;;;;;7.25;5.08;;;;;;;6.32;100.00;99934.60;1832823;76;25800;-85
2022/11/16 10:50:49;;;;;;;7.33;5.17;;;;;;;6.41;100.00;99932.23;1786065;79;26416;-84
2022/11/16 10:53:28;;;;;;;6.03;5.00;;;;;;;6.42;100.00;99936.03;1779725;79;25877;-85
2022/11/16 10:56:31;;;;;;;6.95;5.03;;;;;;;6.37;100.00;99929.59;1812405;78;28292;-85
2022/11/16 10:59:04;;;;;;;4.97;4.45;;;;;;;6.32;100.00;99922.14;1802908;78;25821;-86
2022/11/16 11:01:46;;;;;;;7.10;4.65;;;;;;;6.33;100.00;99918.98;1818434;76;25856;-86
2022/11/16 11:04:30;;;;;;;6.70;5.03;;;;;;;6.32;100.00;99920.81;1821532;77;25875;-85
2022/11/16 11:07:01;;;;;;;7.35;4.72;;;;;;;6.33;100.00;99926.44;1836794;76;25809;-85
2022/11/16 11:09:34;;;;;;;6.67;5.00;;;;;;;6.33;100.00;99927.77;1808769;76;27518;-85
2022/11/16 11:12:37;;;;;;;5.40;4.00;;;;;;;6.34;100.00;99927.27;1819705;76;25910;-85
2022/11/16 11:15:24;;;;;;;6.05;4.08;;;;;;;6.37;100.00;99922.95;1812750;76;25779;-85
2022/11/16 11:18:18;;;;;;;5.62;4.20;;;;;;;6.35;100.00;99919.11;1831089;76;25837;-84
2022/11/16 11:21:07;;;;;;;7.53;4.10;;;;;;;6.33;100.00;99919.80;1799469;78;26320;-84
2022/11/16 11:23:44;;;;;;;5.87;4.10;;;;;;;6.35;100.00;99920.44;1826394;76;27423;-85
2022/11/16 11:26:31;;;;;;;4.45;3.65;;;;;;;6.37;100.00;99911.81;1822069;76;25710;-83
2022/11/16 11:28:59;;;;;;;5.75;4.05;;;;;;;6.38;100.00;99917.44;1833786;76;25955;-86
2022/11/16 11:31:36;;;;;;;3.67;3.10;;;;;;;6.41;100.00;99925.58;1804398;77;25788;-84
2022/11/16 11:34:20;;;;;;;4.97;3.83;;;;;;;6.43;100.00;99917.75;1820233;77;25352;-83
2022/11/16 11:36:59;;;;;;;5.37;3.67;;;;;;;6.46;100.00;99918.71;1826630;76;27631;-83
2022/11/16 11:39:33;;;;;;;4.80;3.90;;;;;;;6.47;99.78;99911.07;1826536;77;25760;-85
2022/11/16 11:42:07;;;;;;;4.55;3.85;;;;;;;6.47;99.68;99911.56;1820586;76;25779;-85
2022/11/16 11:44:56;;;;;;;4.78;3.22;;;;;;;6.50;99.64;99913.36;1811561;76;26177;-84
2022/11/16 11:47:49;;;;;;;3.52;2.75;;;;;;;6.54;99.62;99914.69;1783287;78;26320;-85
2022/11/16 11:50:20;;;;;;;4.15;2.95;;;;;;;6.56;99.19;99923.81;1807049;78;27469;-84
2022/11/16 11:53:07;;;;;;;;;;;;;;;6.58;99.10;99912.48;1811101;78;25993;-85
2022/11/16 11:55:33;;;;;;;3.27;2.45;;;;;;;6.60;98.94;99911.80;1803316;78;25868;-84
2022/11/16 11:58:03;;;;;;;4.08;2.95;;;;;;;6.60;98.92;99920.62;1807814;78;25769;-85
2022/11/16 12:00:46;;;;;;;3.02;2.77;;;;;;;6.63;98.96;99920.25;1807145;78;25798;-84
2022/11/16 12:03:45;;;;;;;3.25;2.95;;;;;;;6.67;99.14;99916.22;1772508;78;27535;-84
2022/11/16 12:06:17;;;;;;;3.87;3.37;;;;;;;6.68;98.31;99915.73;1751634;79;26381;-85
2022/11/16 12:09:18;;;;;;;5.17;3.80;;;;;;;6.59;97.32;99921.61;1756146;78;25850;-85
2022/11/16 12:11:59;;;;;;;4.20;3.05;;;;;;;6.56;97.65;99917.99;1785502;79;25796;-85
2022/11/16 12:14:59;;;;;;;5.53;3.45;;;;;;;6.56;97.68;99918.48;1819672;76;25786;-85
2022/11/16 12:17:55;;;;;;;3.80;3.40;;;;;;;6.55;97.40;99916.82;1823810;76;26935;-84
2022/11/16 12:20:26;;;;;;;5.33;3.15;;;;;;;6.50;97.03;99918.68;1819435;76;26384;-84
2022/11/16 12:23:36;;;;;;;3.00;2.25;;;;;;;6.43;97.07;99920.41;1801229;78;25810;-83